Time;durP1;ratioP1;P1;durP2;ratioP2;P2;SDS_P1;SDS_P2;PMS_P1;PMS_P2;Temp;Humidity;BMP_temperature;BMP_pressure;BME280_temperature;BME280_humidity;BME280_pressure;Samples;Min_cycle;Max_cycle;Signal;HPM_P1;HPM_P2
2021/08/14 00:02:15;;;;;;;7.77;2.90;;;;;;;-145.18;100.00;60484.78;5072937;28;20028;-65
2021/08/14 00:04:41;;;;;;;12.37;3.70;;;;;;;-145.18;100.00;60484.78;5078839;28;20067;-65
2021/08/14 00:07:06;;;;;;;9.83;3.20;;;;;;;-145.18;100.00;60484.78;5079623;28;20034;-66
2021/08/14 00:09:34;;;;;;;5.83;2.67;;;;;;;-145.18;100.00;60484.78;5079217;28;20036;-65
2021/08/14 00:12:00;;;;;;;10.03;3.27;;;;;;;-145.18;100.00;60484.78;5079400;28;20101;-65
2021/08/14 00:14:26;;;;;;;11.47;3.70;;;;;;;-145.18;100.00;60484.78;5082021;28;20435;-65
2021/08/14 00:16:51;;;;;;;9.90;3.50;;;;;;;-145.18;100.00;60484.78;5081647;28;20100;-65
2021/08/14 00:19:17;;;;;;;13.60;3.77;;;;;;;-145.18;100.00;60484.78;5071630;28;20333;-65
2021/08/14 00:21:42;;;;;;;9.00;3.40;;;;;;;-145.18;100.00;60484.78;5078006;28;20060;-65
2021/08/14 00:24:08;;;;;;;11.73;3.97;;;;;;;-145.18;100.00;60484.78;5080022;28;20621;-65
2021/08/14 00:26:33;;;;;;;9.13;3.60;;;;;;;-145.18;100.00;60484.78;5077295;28;20044;-65
2021/08/14 00:28:59;;;;;;;10.07;4.17;;;;;;;-145.18;100.00;60484.78;5076021;28;20059;-65
2021/08/14 00:31:24;;;;;;;11.33;3.83;;;;;;;-145.18;100.00;60484.78;5077987;28;20039;-65
2021/08/14 00:33:50;;;;;;;10.37;3.60;;;;;;;-145.18;100.00;60484.78;5077176;28;20621;-66
2021/08/14 00:36:15;;;;;;;11.90;4.03;;;;;;;-145.18;100.00;60484.78;5079137;28;20265;-65
2021/08/14 00:38:41;;;;;;;10.03;3.43;;;;;;;-145.18;100.00;60484.78;5080233;28;20508;-65
2021/08/14 00:41:06;;;;;;;9.80;3.50;;;;;;;-145.18;100.00;60484.78;5079009;28;20032;-65
2021/08/14 00:43:33;;;;;;;12.27;3.60;;;;;;;-145.18;100.00;60484.78;5075611;28;20451;-65
2021/08/14 00:46:02;;;;;;;13.97;3.90;;;;;;;-145.18;100.00;60484.78;5081419;28;20024;-65
2021/08/14 00:48:28;;;;;;;11.73;4.17;;;;;;;-145.18;100.00;60484.78;5079587;28;20472;-65
2021/08/14 00:50:53;;;;;;;10.43;4.20;;;;;;;-145.18;100.00;60484.78;5070275;28;20256;-65
2021/08/14 00:53:20;;;;;;;15.53;4.23;;;;;;;-145.18;100.00;60484.78;5079690;28;20031;-65
2021/08/14 00:55:47;;;;;;;9.07;3.80;;;;;;;-145.18;100.00;60484.78;5069257;28;20024;-65
2021/08/14 00:58:13;;;;;;;10.23;4.10;;;;;;;-145.18;100.00;60484.78;5078773;28;20028;-65
2021/08/14 01:00:39;;;;;;;10.73;4.50;;;;;;;-145.18;100.00;60484.78;5079672;28;20272;-65
2021/08/14 01:05:34;;;;;;;10.97;3.83;;;;;;;-145.18;100.00;60484.78;5050413;28;20201;-68
2021/08/14 01:08:00;;;;;;;14.97;4.47;;;;;;;-145.18;100.00;60484.78;5055153;28;20032;-68
2021/08/14 01:10:25;;;;;;;12.30;4.37;;;;;;;-145.18;100.00;60484.78;5060697;28;20040;-67
2021/08/14 01:12:53;;;;;;;10.83;4.53;;;;;;;-145.18;100.00;60484.78;5049337;28;20396;-67
2021/08/14 01:15:19;;;;;;;11.37;4.53;;;;;;;-145.18;100.00;60484.78;5057719;28;20033;-68
2021/08/14 01:17:44;;;;;;;9.53;4.60;;;;;;;-145.18;100.00;60484.78;5052041;28;20051;-68
2021/08/14 01:20:11;;;;;;;14.50;4.33;;;;;;;-145.18;100.00;60484.78;5060195;28;20165;-68
2021/08/14 01:22:38;;;;;;;12.50;4.10;;;;;;;-145.18;100.00;60484.78;5057845;28;20384;-68
2021/08/14 01:25:06;;;;;;;10.20;4.57;;;;;;;-145.18;100.00;60484.78;5058726;28;20453;-68
2021/08/14 01:27:32;;;;;;;11.93;3.80;;;;;;;-145.18;100.00;60484.78;5060174;28;20029;-68
2021/08/14 01:29:58;;;;;;;11.90;4.40;;;;;;;-145.18;100.00;60484.78;5057257;28;20040;-68
2021/08/14 01:32:23;;;;;;;7.60;3.73;;;;;;;-145.18;100.00;60484.78;5050662;28;20044;-68
2021/08/14 01:34:49;;;;;;;9.47;4.33;;;;;;;-145.18;100.00;60484.78;5057755;28;20029;-68
2021/08/14 01:37:14;;;;;;;11.87;4.50;;;;;;;-145.18;100.00;60484.78;5052179;28;20020;-68
2021/08/14 01:39:40;;;;;;;12.17;4.27;;;;;;;-145.18;100.00;60484.78;5055331;28;20624;-68
2021/08/14 01:42:09;;;;;;;10.90;4.37;;;;;;;-145.18;100.00;60484.78;5049950;28;20430;-68
2021/08/14 01:44:37;;;;;;;8.47;4.50;;;;;;;-145.18;100.00;60484.78;5057632;28;20500;-68
2021/08/14 01:47:06;;;;;;;12.63;4.60;;;;;;;-145.18;100.00;60484.78;5057428;28;20085;-68
2021/08/14 01:49:31;;;;;;;15.33;4.70;;;;;;;-145.18;100.00;60484.78;5060150;28;20851;-68
2021/08/14 01:51:57;;;;;;;9.63;3.93;;;;;;;-145.18;100.00;60484.78;5061430;28;20070;-68
2021/08/14 01:54:22;;;;;;;13.13;3.60;;;;;;;-145.18;100.00;60484.78;5061306;28;20044;-68
2021/08/14 01:56:50;;;;;;;11.27;3.93;;;;;;;-145.18;100.00;60484.78;5063451;28;20024;-68
2021/08/14 01:59:16;;;;;;;13.80;4.23;;;;;;;-145.18;100.00;60484.78;5058261;28;20028;-68
2021/08/14 02:01:42;;;;;;;10.63;4.17;;;;;;;-145.18;100.00;60484.78;5052037;28;20430;-68
2021/08/14 02:04:08;;;;;;;11.07;4.40;;;;;;;-145.18;100.00;60484.78;5060259;28;20052;-68
2021/08/14 02:06:34;;;;;;;10.40;4.07;;;;;;;-145.18;100.00;60484.78;5063096;28;20028;-68
2021/08/14 02:09:00;;;;;;;12.43;4.47;;;;;;;-145.18;100.00;60484.78;5062539;28;20038;-68
2021/08/14 02:11:34;;;;;;;9.37;4.53;;;;;;;-145.18;100.00;60484.78;5062279;28;20058;-68
2021/08/14 02:14:00;;;;;;;10.00;3.53;;;;;;;-145.18;100.00;60484.78;5056218;28;20465;-68
2021/08/14 02:16:26;;;;;;;11.57;3.53;;;;;;;-145.18;100.00;60484.78;5062573;28;20032;-68
2021/08/14 02:18:51;;;;;;;10.23;3.63;;;;;;;-145.18;100.00;60484.78;5062073;28;20785;-68
2021/08/14 02:21:17;;;;;;;11.90;3.80;;;;;;;-145.18;100.00;60484.78;5062593;28;20055;-68
2021/08/14 02:23:43;;;;;;;9.80;3.80;;;;;;;-145.18;100.00;60484.78;5061936;28;20027;-68
2021/08/14 02:26:09;;;;;;;9.73;3.37;;;;;;;-145.18;100.00;60484.78;5062816;28;20041;-68
2021/08/14 02:28:34;;;;;;;8.40;3.77;;;;;;;-145.18;100.00;60484.78;5061833;28;20036;-68
2021/08/14 02:31:01;;;;;;;8.67;3.60;;;;;;;-145.18;100.00;60484.78;5062159;28;20074;-68
2021/08/14 02:33:27;;;;;;;8.90;3.43;;;;;;;-145.18;100.00;60484.78;5062335;28;20028;-68
2021/08/14 02:35:54;;;;;;;16.27;4.17;;;;;;;-145.18;100.00;60484.78;5062202;28;20037;-68
2021/08/14 02:38:20;;;;;;;14.67;4.33;;;;;;;-145.18;100.00;60484.78;5062105;28;20090;-68
2021/08/14 02:40:46;;;;;;;13.20;4.40;;;;;;;-145.18;100.00;60484.78;5061745;28;20028;-68
2021/08/14 02:43:13;;;;;;;12.50;3.90;;;;;;;-145.18;100.00;60484.78;5062058;28;20447;-68
2021/08/14 02:45:40;;;;;;;9.97;3.70;;;;;;;-145.18;100.00;60484.78;5061419;28;20032;-68
2021/08/14 02:48:05;;;;;;;10.47;3.50;;;;;;;-145.18;100.00;60484.78;5060187;28;20021;-68
2021/08/14 02:50:31;;;;;;;13.57;3.83;;;;;;;-145.18;100.00;60484.78;5060339;28;20042;-68
2021/08/14 02:52:57;;;;;;;10.43;3.83;;;;;;;-145.18;100.00;60484.78;5075174;28;20036;-68
2021/08/14 02:55:23;;;;;;;12.27;4.00;;;;;;;-145.18;100.00;60484.78;5062198;28;20044;-68
2021/08/14 02:57:48;;;;;;;10.87;3.27;;;;;;;-145.18;100.00;60484.78;5062662;28;20056;-68
2021/08/14 03:00:14;;;;;;;8.40;3.50;;;;;;;-145.18;100.00;60484.78;5061303;28;20031;-69
2021/08/14 03:02:40;;;;;;;13.50;3.60;;;;;;;-145.18;100.00;60484.78;5061765;28;20025;-69
2021/08/14 03:05:06;;;;;;;9.10;3.90;;;;;;;-145.18;100.00;60484.78;5061922;28;20040;-68
2021/08/14 03:07:32;;;;;;;9.97;3.57;;;;;;;-145.18;100.00;60484.78;5061701;28;20039;-69
2021/08/14 03:09:58;;;;;;;11.87;3.63;;;;;;;-145.18;100.00;60484.78;5062048;28;20032;-69
2021/08/14 03:12:23;;;;;;;7.87;3.43;;;;;;;-145.18;100.00;60484.78;5061335;28;20472;-68
2021/08/14 03:14:49;;;;;;;9.87;3.70;;;;;;;-145.18;100.00;60484.78;5061540;28;20032;-68
2021/08/14 03:17:15;;;;;;;10.80;3.70;;;;;;;-145.18;100.00;60484.78;5061497;28;20028;-69
2021/08/14 03:19:41;;;;;;;8.87;3.57;;;;;;;-145.18;100.00;60484.78;5061527;28;20061;-68
2021/08/14 03:22:06;;;;;;;8.27;3.13;;;;;;;-145.18;100.00;60484.78;5061573;28;20029;-69
2021/08/14 03:24:32;;;;;;;11.10;3.57;;;;;;;-145.18;100.00;60484.78;5061683;28;20040;-69
2021/08/14 03:26:57;;;;;;;10.23;3.30;;;;;;;-145.18;100.00;60484.78;5061647;28;20061;-68
2021/08/14 03:29:23;;;;;;;13.07;3.23;;;;;;;-145.18;100.00;60484.78;5061397;28;20554;-69
2021/08/14 03:31:49;;;;;;;14.70;3.77;;;;;;;-145.18;100.00;60484.78;5062137;28;20032;-68
2021/08/14 03:34:14;;;;;;;8.80;3.50;;;;;;;-145.18;100.00;60484.78;5061477;28;20025;-68
2021/08/14 03:36:40;;;;;;;7.30;3.40;;;;;;;-145.18;100.00;60484.78;5061459;28;20562;-68
2021/08/14 03:39:05;;;;;;;7.67;3.53;;;;;;;-145.18;100.00;60484.78;5061516;28;20068;-69
2021/08/14 03:41:31;;;;;;;11.40;3.67;;;;;;;-145.18;100.00;60484.78;5061492;28;20042;-69
2021/08/14 03:43:56;;;;;;;11.30;3.93;;;;;;;-145.18;100.00;60484.78;5061016;28;20121;-69
2021/08/14 03:46:22;;;;;;;11.20;3.63;;;;;;;-145.18;100.00;60484.78;5064269;28;20023;-69
2021/08/14 03:48:47;;;;;;;10.20;3.30;;;;;;;-145.18;100.00;60484.78;5061187;28;20734;-69
2021/08/14 03:51:13;;;;;;;10.73;3.40;;;;;;;-145.18;100.00;60484.78;5061013;28;20067;-69
2021/08/14 03:53:38;;;;;;;12.83;4.23;;;;;;;-145.18;100.00;60484.78;5061183;28;20090;-69
2021/08/14 03:56:04;;;;;;;15.20;3.70;;;;;;;-145.18;100.00;60484.78;5061802;28;20116;-68
2021/08/14 03:58:34;;;;;;;11.03;3.20;;;;;;;-145.18;100.00;60484.78;5064821;28;20060;-68
2021/08/14 04:01:00;;;;;;;6.53;3.20;;;;;;;-145.18;100.00;60484.78;5065068;28;20121;-68
2021/08/14 04:03:26;;;;;;;10.47;3.80;;;;;;;-145.18;100.00;60484.78;5064451;28;20043;-68
2021/08/14 04:05:51;;;;;;;10.17;3.47;;;;;;;-145.18;100.00;60484.78;5065522;28;20016;-68
2021/08/14 04:08:18;;;;;;;7.53;3.60;;;;;;;-145.18;100.00;60484.78;5064846;28;20500;-68
2021/08/14 04:10:44;;;;;;;7.70;3.60;;;;;;;-145.18;100.00;60484.78;5064933;28;20032;-68
2021/08/14 04:13:09;;;;;;;10.73;3.27;;;;;;;-145.18;100.00;60484.78;5064747;28;20028;-68
2021/08/14 04:15:34;;;;;;;9.73;3.70;;;;;;;-145.18;100.00;60484.78;5064451;28;20111;-68
2021/08/14 04:18:00;;;;;;;9.57;3.53;;;;;;;-145.18;100.00;60484.78;5064832;28;20024;-69
2021/08/14 04:20:26;;;;;;;11.93;3.60;;;;;;;-145.18;100.00;60484.78;5064924;28;20043;-69
2021/08/14 04:22:51;;;;;;;8.33;3.43;;;;;;;-145.18;100.00;60484.78;5064741;28;20024;-69
2021/08/14 04:25:17;;;;;;;9.40;3.70;;;;;;;-145.18;100.00;60484.78;5063977;28;20025;-69
2021/08/14 04:27:42;;;;;;;15.07;4.13;;;;;;;-145.18;100.00;60484.78;5064772;28;20028;-68
2021/08/14 04:30:09;;;;;;;10.83;3.63;;;;;;;-145.18;100.00;60484.78;5064174;28;20400;-68
2021/08/14 04:32:35;;;;;;;10.20;3.70;;;;;;;-145.18;100.00;60484.78;5064739;28;20020;-68
2021/08/14 04:35:03;;;;;;;11.27;4.00;;;;;;;-145.18;100.00;60484.78;5063481;28;20119;-68
2021/08/14 04:37:28;;;;;;;10.33;3.90;;;;;;;-145.18;100.00;60484.78;5064477;28;20067;-68
2021/08/14 04:39:54;;;;;;;11.93;3.53;;;;;;;-145.18;100.00;60484.78;5064085;28;20040;-68
2021/08/14 04:42:19;;;;;;;9.33;3.80;;;;;;;-145.18;100.00;60484.78;5064432;28;20039;-69
2021/08/14 04:44:44;;;;;;;11.00;4.23;;;;;;;-145.18;100.00;60484.78;5063851;28;20787;-68
2021/08/14 04:47:10;;;;;;;10.10;3.67;;;;;;;-145.18;100.00;60484.78;5064084;28;20081;-69
2021/08/14 04:49:36;;;;;;;14.50;4.17;;;;;;;-145.18;100.00;60484.78;5064396;28;20033;-69
2021/08/14 04:52:01;;;;;;;14.83;5.27;;;;;;;-145.18;100.00;60484.78;5063840;28;20097;-69
2021/08/14 04:54:27;;;;;;;8.70;3.93;;;;;;;-145.18;100.00;60484.78;5064185;28;20040;-69
2021/08/14 04:56:52;;;;;;;10.10;3.83;;;;;;;-145.18;100.00;60484.78;5064081;28;20058;-69
2021/08/14 04:59:18;;;;;;;10.80;3.13;;;;;;;-145.18;100.00;60484.78;5063664;28;20047;-69
2021/08/14 05:01:43;;;;;;;8.63;3.00;;;;;;;-145.18;100.00;60484.78;5063515;28;20036;-69
2021/08/14 05:04:08;;;;;;;12.57;3.70;;;;;;;-145.18;100.00;60484.78;5063630;28;20137;-69
2021/08/14 05:06:37;;;;;;;12.13;3.70;;;;;;;-145.18;100.00;60484.78;5063723;28;20024;-69
2021/08/14 05:09:03;;;;;;;12.83;3.47;;;;;;;-145.18;100.00;60484.78;5063307;28;20032;-69
2021/08/14 05:11:28;;;;;;;11.30;3.17;;;;;;;-145.18;100.00;60484.78;5063465;28;20028;-69
2021/08/14 05:13:54;;;;;;;10.47;3.30;;;;;;;-145.18;100.00;60484.78;5063566;28;20654;-69
2021/08/14 05:16:22;;;;;;;7.87;3.00;;;;;;;-145.18;100.00;60484.78;5063242;28;20108;-68
2021/08/14 05:18:47;;;;;;;12.47;3.43;;;;;;;-145.18;100.00;60484.78;5063217;28;20028;-68
2021/08/14 05:21:13;;;;;;;6.77;3.07;;;;;;;-145.18;100.00;60484.78;5063807;28;20404;-68
2021/08/14 05:23:38;;;;;;;11.07;3.30;;;;;;;-145.18;100.00;60484.78;5063604;28;20492;-69
2021/08/14 05:26:04;;;;;;;10.67;3.47;;;;;;;-145.18;100.00;60484.78;5063319;28;20024;-69
2021/08/14 05:28:31;;;;;;;12.63;3.97;;;;;;;-145.18;100.00;60484.78;5062654;28;20048;-69
2021/08/14 05:30:56;;;;;;;7.93;2.70;;;;;;;-145.18;100.00;60484.78;5062869;28;20024;-69
2021/08/14 05:33:22;;;;;;;10.77;3.50;;;;;;;-145.18;100.00;60484.78;5063258;28;20032;-69
2021/08/14 05:35:47;;;;;;;10.10;3.03;;;;;;;-145.18;100.00;60484.78;5064429;28;20032;-69
2021/08/14 05:38:13;;;;;;;9.37;2.77;;;;;;;-145.18;100.00;60484.78;5069035;28;20044;-69
2021/08/14 05:40:38;;;;;;;10.47;3.57;;;;;;;-145.18;100.00;60484.78;5063119;28;20046;-69
2021/08/14 05:43:04;;;;;;;8.07;3.37;;;;;;;-145.18;100.00;60484.78;5059006;28;20024;-69
2021/08/14 05:45:29;;;;;;;13.60;2.87;;;;;;;-145.18;100.00;60484.78;5063190;28;20123;-68
2021/08/14 05:47:55;;;;;;;9.50;2.83;;;;;;;-145.18;100.00;60484.78;5063243;28;20116;-69
2021/08/14 05:50:20;;;;;;;7.27;2.90;;;;;;;-145.18;100.00;60484.78;5063035;28;20028;-69
2021/08/14 05:52:46;;;;;;;10.13;2.60;;;;;;;-145.18;100.00;60484.78;5063385;28;20024;-69
2021/08/14 05:55:12;;;;;;;8.07;2.90;;;;;;;-145.18;100.00;60484.78;5062984;28;20465;-68
2021/08/14 05:57:37;;;;;;;6.60;2.73;;;;;;;-145.18;100.00;60484.78;5062818;28;20112;-69
2021/08/14 06:00:06;;;;;;;10.10;2.80;;;;;;;-145.18;100.00;60484.78;5063064;28;20024;-69
2021/08/14 06:02:32;;;;;;;10.60;3.03;;;;;;;-145.18;100.00;60484.78;5062658;28;20017;-69
2021/08/14 06:04:58;;;;;;;13.30;2.60;;;;;;;-145.18;100.00;60484.78;5062615;28;20400;-69
2021/08/14 06:07:23;;;;;;;10.47;3.20;;;;;;;-145.18;100.00;60484.78;5062756;28;20036;-69
2021/08/14 06:09:49;;;;;;;11.47;2.83;;;;;;;-145.18;100.00;60484.78;5062819;28;20039;-68
2021/08/14 06:12:14;;;;;;;9.50;2.97;;;;;;;-145.18;100.00;60484.78;5063077;28;20051;-69
2021/08/14 06:14:41;;;;;;;14.70;2.67;;;;;;;-145.18;100.00;60484.78;5062800;28;20033;-68
2021/08/14 06:17:06;;;;;;;8.73;2.80;;;;;;;-145.18;100.00;60484.78;5062965;28;20055;-68
2021/08/14 06:19:32;;;;;;;11.23;2.60;;;;;;;-145.18;100.00;60484.78;5061726;28;20059;-69
2021/08/14 06:21:57;;;;;;;8.07;2.63;;;;;;;-145.18;100.00;60484.78;5062411;28;20783;-69
2021/08/14 06:24:23;;;;;;;8.27;2.80;;;;;;;-145.18;100.00;60484.78;5062435;28;20038;-69
2021/08/14 06:26:48;;;;;;;15.73;4.13;;;;;;;-145.18;100.00;60484.78;5063204;28;20025;-69
2021/08/14 06:29:14;;;;;;;9.17;2.37;;;;;;;-145.18;100.00;60484.78;5062247;28;20401;-68
2021/08/14 06:31:39;;;;;;;10.60;3.37;;;;;;;-145.18;100.00;60484.78;5062727;28;20039;-69
2021/08/14 06:34:05;;;;;;;8.60;2.40;;;;;;;-145.18;100.00;60484.78;5048923;28;20056;-68
2021/08/14 06:36:31;;;;;;;11.57;2.50;;;;;;;-145.18;100.00;60484.78;5062655;28;20028;-69
2021/08/14 06:38:57;;;;;;;9.63;2.30;;;;;;;-145.18;100.00;60484.78;5062259;28;20025;-74
2021/08/14 06:41:24;;;;;;;6.23;2.10;;;;;;;-145.18;100.00;60484.78;5055522;28;20035;-78
2021/08/14 06:43:49;;;;;;;9.32;2.53;;;;;;;-145.18;100.00;60484.78;5065467;28;20044;-76
2021/08/14 06:46:15;;;;;;;7.65;2.25;;;;;;;-145.18;100.00;60484.78;5064245;28;20091;-74
2021/08/14 06:48:40;;;;;;;10.60;2.35;;;;;;;-145.18;100.00;60484.78;5062825;28;20028;-73
2021/08/14 06:51:10;;;;;;;8.98;2.10;;;;;;;-145.18;100.00;60484.78;5062868;28;20035;-71
2021/08/14 06:53:36;;;;;;;10.00;2.78;;;;;;;-145.18;100.00;60484.78;5062338;28;20764;-69
2021/08/14 06:56:01;;;;;;;10.82;2.10;;;;;;;-145.18;100.00;60484.78;5062349;28;20039;-71
2021/08/14 06:58:27;;;;;;;10.55;2.00;;;;;;;-145.18;100.00;60484.78;5062247;28;20163;-70
2021/08/14 07:00:52;;;;;;;12.75;3.00;;;;;;;-145.18;100.00;60484.78;5062025;28;20028;-69
2021/08/14 07:03:18;;;;;;;7.47;2.00;;;;;;;-145.18;100.00;60484.78;5062171;28;20020;-69
2021/08/14 07:05:43;;;;;;;12.40;2.30;;;;;;;-145.18;100.00;60484.78;5062395;28;20657;-69
2021/08/14 07:08:09;;;;;;;8.85;1.90;;;;;;;-145.18;100.00;60484.78;5062274;28;20029;-68
2021/08/14 07:10:34;;;;;;;13.52;2.88;;;;;;;-145.18;100.00;60484.78;5061703;28;20553;-69
2021/08/14 07:13:00;;;;;;;11.00;2.17;;;;;;;-145.18;100.00;60484.78;5062294;28;20418;-67
2021/08/14 07:15:25;;;;;;;8.88;2.35;;;;;;;-145.18;100.00;60484.78;5063338;28;20028;-67
2021/08/14 07:17:51;;;;;;;8.02;2.20;;;;;;;-145.18;100.00;60484.78;5062177;28;20025;-68
2021/08/14 07:20:16;;;;;;;14.00;2.85;;;;;;;-145.18;100.00;60484.78;5061602;28;20024;-68
2021/08/14 07:22:42;;;;;;;9.95;2.45;;;;;;;-145.18;100.00;60484.78;5062384;28;20519;-67
2021/08/14 07:25:08;;;;;;;10.75;2.40;;;;;;;-145.18;100.00;60484.78;5061935;28;20566;-68
2021/08/14 07:27:34;;;;;;;10.52;2.30;;;;;;;-145.18;100.00;60484.78;5062098;28;20115;-68
2021/08/14 07:29:59;;;;;;;6.63;2.10;;;;;;;-145.18;100.00;60484.78;5061664;28;20124;-67
2021/08/14 07:32:25;;;;;;;8.77;2.10;;;;;;;-145.18;100.00;60484.78;5063264;28;20038;-67
2021/08/14 07:34:51;;;;;;;9.13;2.17;;;;;;;-145.18;100.00;60484.78;5065610;28;20032;-67
2021/08/14 07:37:17;;;;;;;9.65;2.47;;;;;;;-145.18;100.00;60484.78;5065464;28;20563;-67
2021/08/14 07:39:43;;;;;;;7.47;2.17;;;;;;;-145.18;100.00;60484.78;5065253;28;20117;-67
2021/08/14 07:42:08;;;;;;;9.13;2.33;;;;;;;-145.18;100.00;60484.78;5065028;28;20369;-67
2021/08/14 07:44:34;;;;;;;6.93;2.10;;;;;;;-145.18;100.00;60484.78;5065255;28;20058;-68
2021/08/14 07:46:59;;;;;;;9.07;2.05;;;;;;;-145.18;100.00;60484.78;5065188;28;20020;-68
2021/08/14 07:49:25;;;;;;;10.38;2.10;;;;;;;-145.18;100.00;60484.78;5064453;28;20475;-68
2021/08/14 07:51:50;;;;;;;8.80;2.28;;;;;;;-145.18;100.00;60484.78;5064862;28;20052;-68
2021/08/14 07:54:16;;;;;;;8.05;2.00;;;;;;;-145.18;100.00;60484.78;5064703;28;20044;-68
2021/08/14 07:56:41;;;;;;;7.43;1.60;;;;;;;-145.18;100.00;60484.78;5064988;28;20040;-68
2021/08/14 07:59:07;;;;;;;7.20;1.73;;;;;;;-145.18;100.00;60484.78;5064821;28;20028;-72
2021/08/14 08:01:32;;;;;;;9.27;1.90;;;;;;;-145.18;100.00;60484.78;5064659;28;20020;-72
2021/08/14 08:03:58;;;;;;;7.15;1.65;;;;;;;-145.18;100.00;60484.78;5064326;28;20047;-71
2021/08/14 08:06:23;;;;;;;8.27;2.00;;;;;;;-145.18;100.00;60484.78;5064773;28;20021;-73
2021/08/14 08:08:50;;;;;;;9.75;2.00;;;;;;;-145.18;100.00;60484.78;5065235;28;20044;-75
2021/08/14 08:11:15;;;;;;;5.97;2.00;;;;;;;-145.18;100.00;60484.78;5065663;28;20039;-77
2021/08/14 08:13:41;;;;;;;6.72;1.85;;;;;;;-145.18;100.00;60484.78;5065570;28;20031;-76
2021/08/14 08:16:06;;;;;;;10.07;2.22;;;;;;;-145.18;100.00;60484.78;5065720;28;20039;-76
2021/08/14 08:18:32;;;;;;;9.27;1.70;;;;;;;-145.18;100.00;60484.78;5065161;28;20033;-76
2021/08/14 08:20:57;;;;;;;8.38;1.90;;;;;;;-145.18;100.00;60484.78;5059704;28;20067;-74
2021/08/14 08:23:23;;;;;;;8.13;1.70;;;;;;;-145.18;100.00;60484.78;5064838;28;20047;-75
2021/08/14 08:25:48;;;;;;;8.93;2.28;;;;;;;-145.18;100.00;60484.78;5064325;28;20488;-77
2021/08/14 08:28:19;;;;;;;7.45;1.95;;;;;;;-145.18;100.00;60484.78;5065553;28;20081;-77
2021/08/14 08:30:45;;;;;;;6.50;1.80;;;;;;;-145.18;100.00;60484.78;5064945;28;20024;-75
2021/08/14 08:33:11;;;;;;;9.02;2.00;;;;;;;-145.18;100.00;60484.78;5064126;28;20121;-75
2021/08/14 08:35:36;;;;;;;5.88;1.90;;;;;;;-145.18;100.00;60484.78;5064874;28;20028;-75
2021/08/14 08:38:02;;;;;;;7.40;2.00;;;;;;;-145.18;100.00;60484.78;5065056;28;20373;-75
2021/08/14 08:40:32;;;;;;;5.63;1.85;;;;;;;-145.18;100.00;60484.78;5064780;28;20119;-76
2021/08/14 08:42:58;;;;;;;8.73;2.47;;;;;;;-145.18;100.00;60484.78;5063526;28;20028;-76
2021/08/14 08:45:23;;;;;;;6.03;1.80;;;;;;;-145.18;100.00;60484.78;5064288;28;20020;-74
2021/08/14 08:47:50;;;;;;;7.43;1.85;;;;;;;-145.18;100.00;60484.78;5065165;28;20078;-75
2021/08/14 08:50:16;;;;;;;8.05;1.65;;;;;;;-145.18;100.00;60484.78;5064079;28;20089;-75
2021/08/14 08:52:44;;;;;;;7.93;1.65;;;;;;;-145.18;100.00;60484.78;5064462;28;20111;-75
2021/08/14 08:55:13;;;;;;;6.07;1.95;;;;;;;-145.18;100.00;60484.78;5061251;28;20039;-75
2021/08/14 08:57:39;;;;;;;6.90;1.83;;;;;;;-145.18;100.00;60484.78;5061425;28;20035;-74
2021/08/14 09:00:06;;;;;;;5.47;2.08;;;;;;;-145.18;100.00;60484.78;5061777;28;20033;-76
2021/08/14 09:02:33;;;;;;;5.53;1.60;;;;;;;-145.18;100.00;60484.78;5061705;28;20746;-74
2021/08/14 09:05:28;;;;;;;5.95;2.00;;;;;;;-145.18;100.00;60484.78;5060691;28;20045;-75
2021/08/14 09:07:54;;;;;;;7.57;2.22;;;;;;;-145.18;100.00;60484.78;4959865;28;20606;-74
2021/08/14 09:10:24;;;;;;;7.75;2.10;;;;;;;-145.18;100.00;60484.78;4959800;28;20130;-75
2021/08/14 09:12:50;;;;;;;10.68;2.78;;;;;;;-145.18;100.00;60484.78;4947678;28;20074;-77
2021/08/14 09:15:27;;;;;;;6.72;1.92;;;;;;;-145.18;100.00;60484.78;4959988;28;20035;-77
2021/08/14 09:18:02;;;;;;;7.85;2.30;;;;;;;-145.18;100.00;60484.78;4960189;28;20070;-75
2021/08/14 09:20:29;;;;;;;7.05;1.70;;;;;;;-145.18;100.00;60484.78;4959668;28;20035;-75
2021/08/14 09:23:03;;;;;;;7.80;1.80;;;;;;;-145.18;100.00;60484.78;4959143;28;20105;-74
2021/08/14 09:25:46;;;;;;;8.82;1.90;;;;;;;-145.18;100.00;60484.78;4957377;28;20043;-74
2021/08/14 09:28:15;;;;;;;6.72;1.95;;;;;;;-145.18;100.00;60484.78;4952670;28;20026;-75
2021/08/14 09:30:55;;;;;;;6.88;1.92;;;;;;;-145.18;100.00;60484.78;4958850;28;20127;-71
2021/08/14 09:33:26;;;;;;;8.93;1.98;;;;;;;-145.18;100.00;60484.78;4958379;28;20121;-72
2021/08/14 09:35:57;;;;;;;9.70;1.90;;;;;;;-145.18;100.00;60484.78;4959741;28;20539;-74
2021/08/14 09:38:23;;;;;;;;;;;;;;;-145.18;100.00;60484.78;4963204;28;20927;-73
2021/08/14 09:40:49;;;;;;;7.50;1.80;;;;;;;-145.18;100.00;60484.78;4959558;28;19925;-73
2021/08/14 09:43:32;;;;;;;9.35;2.15;;;;;;;-145.18;100.00;60484.78;4964671;28;20093;-73
2021/08/14 09:45:58;;;;;;;8.38;2.22;;;;;;;-145.18;100.00;60484.78;5060616;28;20037;-68
2021/08/14 09:48:28;;;;;;;8.85;1.67;;;;;;;-145.18;100.00;60484.78;5060275;28;20085;-69
2021/08/14 09:50:53;;;;;;;9.13;1.90;;;;;;;-145.18;100.00;60484.78;5060737;28;20409;-70
2021/08/14 09:53:22;;;;;;;13.90;2.50;;;;;;;-145.18;100.00;60484.78;5060372;28;20114;-68
2021/08/14 09:55:52;;;;;;;6.65;1.75;;;;;;;-145.18;100.00;60484.78;5060166;28;20037;-67
2021/08/14 09:58:24;;;;;;;6.47;1.70;;;;;;;-145.18;100.00;60484.78;5060738;28;20025;-69
2021/08/14 10:00:50;;;;;;;7.57;1.67;;;;;;;-145.18;100.00;60484.78;5060735;28;20116;-69
2021/08/14 10:03:17;;;;;;;12.43;1.77;;;;;;;-145.18;100.00;60484.78;5060065;28;20028;-68
2021/08/14 10:05:44;;;;;;;6.22;2.33;;;;;;;-145.18;100.00;60484.78;5060012;28;20702;-71
2021/08/14 10:08:10;;;;;;;6.90;1.42;;;;;;;-145.18;100.00;60484.78;5060781;28;20032;-72
2021/08/14 10:10:36;;;;;;;11.77;1.95;;;;;;;-145.18;100.00;60484.78;5060093;28;20414;-73
2021/08/14 10:13:02;;;;;;;7.15;1.73;;;;;;;-145.18;100.00;60484.78;5060675;28;20024;-73
2021/08/14 10:15:28;;;;;;;4.38;1.50;;;;;;;-145.18;100.00;60484.78;5059550;28;20029;-74
2021/08/14 10:17:55;;;;;;;9.32;2.00;;;;;;;-145.18;100.00;60484.78;5060741;28;20051;-74
2021/08/14 10:20:21;;;;;;;5.22;1.60;;;;;;;-145.18;100.00;60484.78;5059899;28;20067;-72
2021/08/14 10:22:54;;;;;;;7.03;2.20;;;;;;;-145.18;100.00;60484.78;5065919;28;20029;-68
2021/08/14 10:25:20;;;;;;;7.50;1.63;;;;;;;-145.18;100.00;60484.78;5059593;28;20075;-71
2021/08/14 10:28:06;;;;;;;8.73;1.85;;;;;;;-145.18;100.00;60484.78;5060572;28;20052;-71
2021/08/14 10:31:00;;;;;;;5.75;1.58;;;;;;;-145.18;100.00;60484.78;5059857;28;20058;-70
2021/08/14 10:33:35;;;;;;;5.88;2.13;;;;;;;-145.18;100.00;60484.78;4986512;28;20034;-68
2021/08/14 10:36:41;;;;;;;9.90;1.85;;;;;;;-145.18;100.00;60484.78;5055084;28;20033;-67
2021/08/14 10:39:18;;;;;;;6.47;1.92;;;;;;;-145.18;100.00;60484.78;4969584;28;20121;-69
2021/08/14 10:41:44;;;;;;;8.75;1.70;;;;;;;-145.18;100.00;60484.78;4959475;28;20035;-69
2021/08/14 10:44:10;;;;;;;7.15;1.50;;;;;;;-145.18;100.00;60484.78;4958399;28;20058;-68
2021/08/14 10:46:45;;;;;;;6.93;1.90;;;;;;;-145.18;100.00;60484.78;4960755;28;20031;-69
2021/08/14 10:49:38;;;;;;;5.05;1.55;;;;;;;-145.18;100.00;60484.78;4966521;28;20061;-70
2021/08/14 10:52:07;;;;;;;6.40;1.42;;;;;;;-145.18;100.00;60484.78;4954734;28;20038;-69
2021/08/14 10:55:13;;;;;;;3.92;1.40;;;;;;;-145.18;100.00;60484.78;4961883;28;20117;-67
2021/08/14 10:57:44;;;;;;;5.25;1.38;;;;;;;-145.18;100.00;60484.78;4961471;28;20046;-69
2021/08/14 11:00:30;;;;;;;6.13;1.50;;;;;;;-145.18;100.00;60484.78;4961951;28;20597;-68
2021/08/14 11:03:04;;;;;;;5.50;1.63;;;;;;;-145.18;100.00;60484.78;4958245;28;20049;-67
2021/08/14 11:05:30;;;;;;;6.15;2.00;;;;;;;-145.18;100.00;60484.78;4970325;28;20133;-68
2021/08/14 11:08:00;;;;;;;5.78;1.85;;;;;;;-145.18;100.00;60484.78;4961511;28;20137;-68
2021/08/14 11:10:35;;;;;;;5.93;1.55;;;;;;;-145.18;100.00;60484.78;4962226;28;20074;-68